Flight Track Log - Related Links

Times and Time Zones

All times are in EDT time to prevent confusion due to time zone crossing. See the RPA3161 flight status page for this flight to view local times or setup timezone preferences in your user account.

Time Position Orientation Groundspeed Altitude Reporting Facility
EDT Latitude Longitude Course Direction KTS MPH feet Rate Location/Type
Tue 12:48:19 PM 44.4856 -73.2403 235° Southwest 217 250 2,800  Level Boston Center
Tue 12:49:19 PM 44.4539 -73.3097 237° Southwest 251 289 5,600 3,250 Climbing Boston Center
Tue 12:50:19 PM 44.4136 -73.3992 238° Southwest 267 307 9,300 3,300 Climbing Boston Center
Tue 12:51:00 PM 44.1447 -73.9304 241° Southwest  Level FlightAware Approximate
Tue 12:51:19 PM 44.3753 -73.4914 240° Southwest 277 319 12,200  Level Boston Center
Tue 12:52:00 PM 44.0817 -74.0878 241° Southwest  Level FlightAware Approximate
Tue 12:52:19 PM 44.3286 -73.5806 234° Southwest 277 319 14,900  Level Boston Center
Tue 12:53:00 PM 44.0132 -74.2404 235° Southwest  Level FlightAware Approximate
Tue 12:53:19 PM 44.2447 -73.6225 200° South 289 333 17,500  Level Boston Center
Tue 12:54:19 PM 44.1464 -73.6639 197° South 331 381 20,300 2,450 Climbing Boston Center
Tue 12:55:19 PM 44.0586 -73.7025 198° South 340 391 22,400 1,350 Climbing Boston Center
Tue 12:56:19 PM 43.9644 -73.7408 196° South 350 403 23,000 750 Climbing Boston Center
Tue 12:57:19 PM 43.8681 -73.7792 196° South 356 410 23,900 1,227 Climbing Boston Center
Tue 12:58:31 PM 43.7717 -73.8172 196° South 361 415 25,700 1,591 Climbing Boston Center
Tue 12:59:31 PM 43.6733 -73.8581 197° South 361 415 27,400 1,150 Climbing Boston Center
Tue 01:00:31 PM 43.5664 -73.9014 196° South 361 415 28,000 300 Climbing Boston Center
Tue 01:01:31 PM 43.4700 -73.9419 197° South 361 415 28,000  Level Boston Center
Tue 01:02:31 PM 43.4150 -74.0150 224° Southwest 342 394 28,000  Level Boston Center
Tue 01:03:31 PM 43.3894 -74.1828 258° West 316 364 28,000  Level Boston Center
Tue 01:04:31 PM 43.3772 -74.3111 263° West 321 369 28,000  Level Boston Center
Tue 01:05:31 PM 43.3644 -74.4392 262° West 333 383 28,000  Level Boston Center
Tue 01:06:31 PM 43.3519 -74.5644 262° West 338 389 28,000  Level Boston Center
Tue 01:07:31 PM 43.3369 -74.6925 261° West 338 389 28,000  Level Boston Center
Tue 01:08:31 PM 43.3239 -74.8175 262° West 343 395 28,000  Level Boston Center
Tue 01:09:31 PM 43.3086 -74.9453 261° West 343 395 28,000  Level Boston Center
Tue 01:10:31 PM 43.2956 -75.0703 262° West 343 395 28,000  Level Boston Center
Tue 01:11:43 PM 43.2819 -75.2011 262° West 343 395 28,000  Level Boston Center
Tue 01:12:43 PM 43.2617 -75.3428 259° West 348 400 28,000  Level Boston Center
Tue 01:13:43 PM 43.2503 -75.4675 263° West 353 406 28,000  Level Boston Center
Tue 01:14:43 PM 43.2364 -75.5953 262° West 348 400 28,000  Level Boston Center
Tue 01:15:43 PM 43.2203 -75.7197 260° West 348 400 28,000  Level Boston Center
Tue 01:16:43 PM 43.2039 -75.8469 260° West 348 400 28,000  Level Boston Center
Tue 01:17:43 PM 43.1897 -75.9744 261° West 348 400 28,000  Level Boston Center
Tue 01:18:43 PM 43.1753 -76.1019 261° West 348 400 28,000  Level Boston Center
Tue 01:19:43 PM 43.1422 -76.2194 249° West 348 400 28,000  Level Boston Center
Tue 01:22:11 PM 42.9267 -76.4033 212° Southwest 344 396 28,000  Level Cleveland Center
Tue 01:24:39 PM 42.7317 -76.5589 210° Southwest 356 410 28,000  Level New York Center
Tue 01:25:37 PM 42.6492 -76.6250 211° Southwest 356 410 28,000  Level New York Center
Tue 01:26:37 PM 42.5667 -76.6933 211° Southwest 351 404 28,000  Level New York Center
Tue 01:27:37 PM 42.4844 -76.7592 211° Southwest 351 404 28,000  Level New York Center
Tue 01:28:37 PM 42.3997 -76.8272 211° Southwest 351 404 28,000  Level New York Center
Tue 01:29:38 PM 42.3153 -76.8950 211° Southwest 351 404 28,000  Level New York Center
Tue 01:30:38 PM 42.2328 -76.9603 210° Southwest 351 404 28,000  Level New York Center
Tue 01:31:39 PM 42.1500 -77.0308 212° Southwest 351 404 28,000  Level New York Center
Tue 01:32:39 PM 42.0631 -77.0981 210° Southwest 351 404 28,000  Level New York Center
Tue 01:33:37 PM 41.9803 -77.1683 212° Southwest 351 404 28,000  Level New York Center
Tue 01:34:37 PM 41.8869 -77.2372 209° Southwest 351 404 28,000  Level New York Center
Tue 01:35:38 PM 41.8042 -77.3044 211° Southwest 351 404 28,000  Level New York Center
Tue 01:36:39 PM 41.7211 -77.3714 211° Southwest 351 404 28,000  Level New York Center
Tue 01:37:39 PM 41.6386 -77.4353 210° Southwest 351 404 28,000  Level New York Center
Tue 01:38:38 PM 41.5536 -77.5017 210° Southwest 351 404 28,000  Level New York Center
Tue 01:39:39 PM 41.4686 -77.5681 210° Southwest 351 404 28,000  Level New York Center
Tue 01:40:39 PM 41.3922 -77.6267 210° Southwest 351 404 28,000 -305 Level New York Center
Tue 01:41:37 PM 41.3069 -77.6956 211° Southwest 357 411 27,400 -864 Descending New York Center
Tue 01:42:37 PM 41.2219 -77.7586 209° Southwest 357 411 26,300 -1,150 Descending New York Center
Tue 01:43:37 PM 41.1369 -77.8242 210° Southwest 352 405 25,100 -1,131 Descending New York Center
Tue 01:44:39 PM 41.0517 -77.8894 210° Southwest 352 405 24,000 -700 Descending New York Center
Tue 01:45:37 PM 40.9611 -77.9406 203° Southwest 352 405 23,700 -908 Descending New York Center
Tue 01:46:38 PM 40.8639 -77.9250 173° South 343 395 22,200 -1,475 Descending New York Center
Tue 01:47:39 PM 40.7872 -77.8511 144° Southeast 322 371 20,700 -1,500 Descending New York Center
Tue 01:48:38 PM 40.7150 -77.7669 139° Southeast 322 371 19,200 -857 Descending New York Center
Tue 01:49:38 PM 40.6428 -77.6828 139° Southeast 341 392 19,000 -100 Descending New York Center
Tue 01:50:38 PM 40.5625 -77.5956 140° Southeast 349 402 19,000  Level New York Center
Tue 01:51:38 PM 40.4978 -77.5208 139° Southeast 349 402 19,000  Level New York Center
Tue 01:52:39 PM 40.4194 -77.4342 140° Southeast 349 402 19,000  Level New York Center
Tue 01:53:37 PM 40.3569 -77.3600 138° Southeast 343 395 19,000  Level New York Center
Tue 01:54:37 PM 40.2764 -77.2708 140° Southeast 336 387 19,000  Level New York Center
Tue 01:55:38 PM 40.2056 -77.1933 140° Southeast 341 392 19,000  Level New York Center
Tue 01:56:38 PM 40.1328 -77.1133 140° Southeast 341 392 19,000  Level New York Center
Tue 01:57:39 PM 40.0619 -77.0308 138° Southeast 341 392 19,000  Level New York Center
Tue 01:58:38 PM 39.9892 -76.9514 140° Southeast 341 392 19,000  Level New York Center
Tue 01:59:39 PM 39.9203 -76.8719 138° Southeast 336 387 19,000  Level New York Center
Tue 02:00:39 PM 39.8469 -76.7953 141° Southeast 341 392 19,000 -254 Level New York Center
Tue 02:01:37 PM 39.7761 -76.7164 139° Southeast 336 387 18,500 -1,119 Descending New York Center
Tue 02:02:37 PM 39.7069 -76.6403 140° Southeast 336 387 16,800 -1,736 Descending New York Center
Tue 02:03:38 PM 39.6261 -76.6256 172° South 284 327 15,000 -1,537 Descending New York Center
Tue 02:04:38 PM 39.5489 -76.6272 181° South 284 327 13,700 -992 Descending New York Center
Tue 02:05:39 PM 39.4797 -76.6375 187° South 269 310 13,000 -347 Descending New York Center
Tue 02:06:39 PM 39.4678 -76.7092 258° West 184 212 13,000  Level New York Center
Tue 02:07:37 PM 39.5461 -76.7239 352° North 135 155 13,000  Level New York Center
Tue 02:08:38 PM 39.6103 -76.6942 20° North 189 217 13,000  Level New York Center
Tue 02:09:38 PM 39.5678 -76.6286 130° Southeast 126 145 13,000  Level New York Center
Tue 02:10:37 PM 39.5072 -76.6292 180° South 195 224 13,000  Level New York Center
Tue 02:11:37 PM 39.4650 -76.6819 224° Southwest 214 246 13,000  Level New York Center
Tue 02:12:37 PM 39.5192 -76.7217 331° Northwest 125 144 13,000  Level New York Center
Tue 02:13:38 PM 39.5992 -76.7067 North 157 181 13,000  Level New York Center
Tue 02:14:39 PM 39.5883 -76.6331 101° East 177 204 13,000  Level New York Center
Tue 02:15:40 PM 39.5175 -76.6300 178° South 159 183 13,000  Level New York Center
Tue 02:16:37 PM 39.4681 -76.6608 206° Southwest 194 223 13,000  Level New York Center
Tue 02:17:35 PM 39.5000 -76.7167 307° West 271 312 13,000 -256 Level Potomac TRACON
Tue 02:18:34 PM 39.5667 -76.6833 21° North 290 334 12,500 -500 Descending Potomac TRACON
Tue 02:19:35 PM 39.5333 -76.6167 123° Southeast 304 350 12,000 -248 Descending Potomac TRACON
Tue 02:20:35 PM 39.4500 -76.6167 180° South 281 323 12,000 -350 Level Potomac TRACON
Tue 02:21:35 PM 39.3667 -76.6333 189° South 279 321 11,300 -952 Descending Potomac TRACON
Tue 02:22:41 PM 39.2833 -76.6500 189° South 288 331 10,000 -619 Descending Potomac TRACON
Tue 02:23:41 PM 39.2000 -76.6667 189° South 284 327 10,000  Level Potomac TRACON
Tue 02:24:35 PM 39.1500 -76.7000 207° Southwest 289 333 10,000  Level Potomac TRACON
Tue 02:25:35 PM 39.0833 -76.7667 218° Southwest 287 330 10,000 -47 Level Potomac TRACON
Tue 02:26:42 PM 39.0167 -76.8500 224° Southwest 265 305 9,900 -661 Descending Potomac TRACON
Tue 02:27:42 PM 38.9667 -76.9000 218° Southwest 236 272 8,600 -1,450 Descending Potomac TRACON
Tue 02:28:42 PM 38.9167 -76.9500 218° Southwest 237 273 7,000 -1,300 Descending Potomac TRACON
Tue 02:29:42 PM 38.8500 -76.9500 180° South 219 252 6,000 -1,048 Descending Potomac TRACON
Tue 02:30:48 PM 38.8000 -76.9500 180° South 195 224 4,800 -1,339 Descending Potomac TRACON
Tue 02:31:43 PM 38.7500 -76.9333 165° South 193 222 3,300 -1,617 Descending Potomac TRACON
Tue 02:32:43 PM 38.7000 -76.9667 207° Southwest 191 220 1,700 -850 Descending Potomac TRACON
Tue 02:33:43 PM 38.7000 -77.0167 270° West 193 222 1,600 -100 Descending Potomac TRACON

Login

Don't have an account? Register now (free) for customized features, flight alerts, and more!